Time;durP1;ratioP1;P1;durP2;ratioP2;P2;SDS_P1;SDS_P2;PMS_P1;PMS_P2;Temp;Humidity;BMP_temperature;BMP_pressure;BME280_temperature;BME280_humidity;BME280_pressure;Samples;Min_cycle;Max_cycle;Signal;HPM_P1;HPM_P2
2023/09/11 00:01:15;;;;;;;9.63;7.77;;;;;;;18.72;100.00;98121.13;5000078;28;20242;-85
2023/09/11 00:03:42;;;;;;;11.10;8.97;;;;;;;18.68;100.00;98128.63;4999904;28;20218;-84
2023/09/11 00:06:08;;;;;;;10.80;8.93;;;;;;;18.67;100.00;98126.97;4998397;28;20226;-83
2023/09/11 00:08:35;;;;;;;10.27;8.60;;;;;;;18.65;100.00;98128.09;4998374;28;20707;-83
2023/09/11 00:11:02;;;;;;;10.10;9.00;;;;;;;18.61;100.00;98127.59;4998406;28;20245;-83
2023/09/11 00:13:29;;;;;;;10.83;8.33;;;;;;;18.60;100.00;98128.56;4998557;28;20610;-83
2023/09/11 00:15:56;;;;;;;9.50;8.30;;;;;;;18.58;100.00;98121.66;4998017;28;20736;-83
2023/09/11 00:18:23;;;;;;;9.27;8.10;;;;;;;18.56;100.00;98121.84;4998507;28;20220;-83
2023/09/11 00:20:50;;;;;;;10.03;8.43;;;;;;;18.55;100.00;98111.28;4998421;28;20230;-83
2023/09/11 00:23:17;;;;;;;9.60;8.10;;;;;;;18.54;100.00;98113.13;4998128;28;20212;-85
2023/09/11 00:25:43;;;;;;;10.70;8.23;;;;;;;18.53;100.00;98114.13;4998416;28;20241;-83
2023/09/11 00:28:09;;;;;;;9.93;8.00;;;;;;;18.52;100.00;98104.41;4998785;28;20208;-83
2023/09/11 00:30:36;;;;;;;9.30;7.33;;;;;;;18.52;100.00;98107.09;4998530;28;20240;-83
2023/09/11 00:33:05;;;;;;;9.70;8.00;;;;;;;18.54;100.00;98105.09;4998441;28;20218;-83
2023/09/11 00:35:31;;;;;;;10.77;8.67;;;;;;;18.50;100.00;98098.38;4999255;28;20221;-83
2023/09/11 00:37:58;;;;;;;10.27;8.70;;;;;;;18.44;100.00;98099.00;4999169;28;20218;-83
2023/09/11 00:40:24;;;;;;;11.63;8.40;;;;;;;18.42;100.00;98105.50;4998559;28;20230;-83
2023/09/11 00:42:51;;;;;;;10.03;8.80;;;;;;;18.39;100.00;98100.44;4998007;28;20221;-83
2023/09/11 00:45:19;;;;;;;11.17;8.97;;;;;;;18.36;100.00;98101.59;5000976;28;20218;-81
2023/09/11 00:47:47;;;;;;;11.33;8.57;;;;;;;18.36;100.00;98101.59;4997279;28;20243;-82
2023/09/11 00:50:17;;;;;;;9.17;8.27;;;;;;;18.34;100.00;98097.41;4997199;28;20234;-82
2023/09/11 00:52:44;;;;;;;10.80;8.23;;;;;;;18.31;100.00;98092.38;4996873;28;20206;-81
2023/09/11 00:55:11;;;;;;;12.27;9.03;;;;;;;18.28;100.00;98088.13;4997635;28;20220;-81
2023/09/11 00:57:38;;;;;;;12.73;9.03;;;;;;;18.25;100.00;98088.44;4997565;28;20673;-81
2023/09/11 01:00:05;;;;;;;9.87;8.87;;;;;;;18.19;100.00;98089.06;4996472;28;20236;-83
2023/09/11 01:02:32;;;;;;;9.93;8.63;;;;;;;18.15;100.00;98078.81;4995925;28;20308;-81
2023/09/11 01:04:59;;;;;;;11.17;8.60;;;;;;;18.12;100.00;98077.31;4995869;28;20210;-81
2023/09/11 01:07:27;;;;;;;11.10;9.33;;;;;;;18.10;100.00;98073.94;4996125;28;20264;-81
2023/09/11 01:09:54;;;;;;;10.13;8.87;;;;;;;18.08;100.00;98075.94;4996134;28;20210;-81
2023/09/11 01:12:20;;;;;;;11.40;9.23;;;;;;;18.05;100.00;98086.09;4996346;28;20218;-81
2023/09/11 01:14:47;;;;;;;11.20;9.20;;;;;;;18.03;100.00;98077.34;4995251;28;20214;-81
2023/09/11 01:17:18;;;;;;;11.07;9.00;;;;;;;18.03;100.00;98075.53;4995674;28;20210;-81
2023/09/11 01:20:03;;;;;;;12.00;9.10;;;;;;;18.00;100.00;98081.22;4995986;28;20218;-81
2023/09/11 01:22:46;;;;;;;11.00;9.40;;;;;;;17.97;100.00;98073.47;4995605;28;20700;-83
2023/09/11 01:25:28;;;;;;;10.23;8.33;;;;;;;17.97;100.00;98073.47;4996103;28;20210;-81
2023/09/11 01:28:14;;;;;;;10.33;8.97;;;;;;;17.97;100.00;98067.28;4995300;28;20245;-81
2023/09/11 01:30:45;;;;;;;11.30;9.30;;;;;;;18.00;100.00;98075.00;4995178;28;20735;-81
2023/09/11 01:33:13;;;;;;;11.87;9.63;;;;;;;17.97;100.00;98068.13;4995910;28;20215;-81
2023/09/11 01:35:39;;;;;;;10.73;9.33;;;;;;;17.94;100.00;98070.28;4999403;28;20206;-81
2023/09/11 01:38:06;;;;;;;12.23;10.30;;;;;;;17.95;100.00;98064.78;4999159;28;20206;-81
2023/09/11 01:40:36;;;;;;;12.33;9.90;;;;;;;17.90;100.00;98056.38;4999004;28;20237;-81
2023/09/11 01:43:05;;;;;;;11.10;9.90;;;;;;;17.84;100.00;98056.97;4999457;28;20206;-81
2023/09/11 01:45:35;;;;;;;13.43;10.43;;;;;;;17.76;100.00;98054.25;4999361;28;20210;-81
2023/09/11 01:48:04;;;;;;;12.83;10.30;;;;;;;17.70;100.00;98054.84;4999390;28;20230;-81
2023/09/11 01:50:33;;;;;;;12.93;10.20;;;;;;;17.67;100.00;98062.34;4998903;28;20230;-81
2023/09/11 01:53:00;;;;;;;12.70;10.33;;;;;;;17.62;100.00;98046.72;4999435;28;20222;-81
2023/09/11 01:55:26;;;;;;;14.10;10.53;;;;;;;17.61;100.00;98049.56;4999898;28;20221;-81
2023/09/11 01:57:53;;;;;;;11.97;10.57;;;;;;;17.57;100.00;98062.41;4999674;28;20317;-81
2023/09/11 02:00:20;;;;;;;12.57;10.60;;;;;;;17.53;100.00;98057.47;4998852;28;20234;-81
2023/09/11 02:02:51;;;;;;;13.23;10.70;;;;;;;17.50;100.00;98053.28;4999258;28;20206;-81
2023/09/11 02:05:19;;;;;;;12.33;9.43;;;;;;;17.44;100.00;98056.56;4999328;28;20764;-81
2023/09/11 02:07:45;;;;;;;13.23;11.03;;;;;;;17.40;100.00;98052.53;4999025;28;20565;-81
2023/09/11 02:10:12;;;;;;;14.37;11.67;;;;;;;17.42;100.00;98053.19;4999036;28;20218;-81
2023/09/11 02:12:38;;;;;;;15.17;11.60;;;;;;;17.40;100.00;98047.16;4998404;28;20221;-81
2023/09/11 02:15:07;;;;;;;14.33;11.67;;;;;;;17.45;100.00;98044.91;4997990;28;20222;-81
2023/09/11 02:17:33;;;;;;;14.57;12.13;;;;;;;17.46;100.00;98054.59;4998844;28;20210;-81
2023/09/11 02:20:00;;;;;;;14.57;11.63;;;;;;;17.43;100.00;98054.88;4998280;28;20832;-81
2023/09/11 02:22:28;;;;;;;15.33;11.27;;;;;;;17.41;100.00;98056.00;4997708;28;20622;-81
2023/09/11 02:24:54;;;;;;;13.47;11.30;;;;;;;17.40;100.00;98063.22;4998528;28;20566;-82
2023/09/11 02:27:21;;;;;;;13.87;11.63;;;;;;;17.36;100.00;98059.09;4998395;28;20230;-82
2023/09/11 02:29:47;;;;;;;15.50;11.73;;;;;;;17.34;100.00;98063.78;4997715;28;20240;-81
2023/09/11 02:32:14;;;;;;;13.60;11.37;;;;;;;17.30;100.00;98056.19;4996839;28;20240;-81
2023/09/11 02:34:40;;;;;;;12.27;10.17;;;;;;;17.24;100.00;98057.63;4998347;28;20213;-81
2023/09/11 02:37:07;;;;;;;13.80;11.17;;;;;;;17.21;100.00;98057.94;4998111;28;20214;-81
2023/09/11 02:39:35;;;;;;;12.70;10.83;;;;;;;17.21;100.00;98062.44;4998510;28;20214;-81
2023/09/11 02:42:02;;;;;;;12.83;10.73;;;;;;;17.21;100.00;98067.78;4997662;28;20234;-81
2023/09/11 02:44:29;;;;;;;13.77;11.50;;;;;;;17.24;100.00;98057.63;4998037;28;20225;-81
2023/09/11 02:46:55;;;;;;;13.00;10.97;;;;;;;17.26;100.00;98060.16;4997716;28;20234;-81
2023/09/11 02:49:22;;;;;;;13.10;10.70;;;;;;;17.26;100.00;98060.97;4998190;28;20210;-81
2023/09/11 02:51:48;;;;;;;14.00;11.00;;;;;;;17.22;100.00;98059.63;4998198;28;20237;-81
2023/09/11 02:54:15;;;;;;;14.53;12.07;;;;;;;17.18;100.00;98063.56;4997791;28;20214;-81
2023/09/11 02:56:43;;;;;;;14.23;11.33;;;;;;;17.17;100.00;98061.88;4998238;28;20214;-81
2023/09/11 02:59:09;;;;;;;14.20;11.77;;;;;;;17.16;100.00;98068.22;4997891;28;20862;-81
2023/09/11 03:01:35;;;;;;;18.63;12.10;;;;;;;17.15;100.00;98063.88;4998063;28;20709;-81
2023/09/11 03:04:02;;;;;;;14.43;12.13;;;;;;;17.14;100.00;98061.34;4998115;28;20237;-81
2023/09/11 03:06:29;;;;;;;14.13;11.47;;;;;;;17.15;100.00;98052.34;4998311;28;20221;-81
2023/09/11 03:08:57;;;;;;;15.67;12.33;;;;;;;17.19;100.00;98057.22;4997360;28;20333;-81
2023/09/11 03:11:23;;;;;;;15.07;12.20;;;;;;;17.19;100.00;98064.41;4996581;28;20238;-81
2023/09/11 03:13:51;;;;;;;14.70;11.70;;;;;;;17.13;100.00;98057.81;4996195;28;20217;-82
2023/09/11 03:16:17;;;;;;;14.63;11.70;;;;;;;17.13;100.00;98054.31;4997062;28;20217;-81
2023/09/11 03:18:44;;;;;;;14.90;11.37;;;;;;;17.12;100.00;98058.81;4996497;28;20215;-81
2023/09/11 03:21:11;;;;;;;12.77;11.03;;;;;;;17.07;100.00;98061.09;4996497;28;20238;-81
2023/09/11 03:23:38;;;;;;;13.23;11.00;;;;;;;17.07;100.00;98054.91;4997366;28;20214;-81
2023/09/11 03:26:12;;;;;;;13.57;10.87;;;;;;;17.02;100.00;98057.19;4996289;28;20218;-81
2023/09/11 03:28:39;;;;;;;12.77;10.93;;;;;;;16.98;100.00;98061.13;4996517;28;20219;-81
2023/09/11 03:31:06;;;;;;;14.20;11.73;;;;;;;16.96;100.00;98053.25;4996595;28;20237;-81
2023/09/11 03:33:33;;;;;;;14.47;11.17;;;;;;;16.95;100.00;98056.09;4996451;28;20214;-81
2023/09/11 03:36:00;;;;;;;16.07;11.60;;;;;;;16.94;100.00;98049.91;4996143;28;20206;-81
2023/09/11 03:38:26;;;;;;;14.97;11.93;;;;;;;16.96;100.00;98053.25;4996390;28;20237;-81
2023/09/11 03:40:53;;;;;;;14.97;12.33;;;;;;;16.96;100.00;98049.75;4995993;28;20237;-81
2023/09/11 03:43:19;;;;;;;15.63;12.60;;;;;;;16.95;100.00;98054.25;4996004;28;20216;-81
2023/09/11 03:45:47;;;;;;;15.67;12.60;;;;;;;16.96;100.00;98047.09;4997611;28;20281;-81
2023/09/11 03:48:15;;;;;;;15.33;12.47;;;;;;;16.96;100.00;98052.44;4997610;28;20237;-81
2023/09/11 03:50:41;;;;;;;14.27;12.13;;;;;;;16.95;100.00;98056.91;4995603;28;20230;-81
2023/09/11 03:53:07;;;;;;;15.27;12.40;;;;;;;16.93;100.00;98050.91;4995437;28;20217;-81
2023/09/11 03:55:34;;;;;;;17.50;12.97;;;;;;;16.90;100.00;98053.88;4995840;28;20223;-81
2023/09/11 03:58:00;;;;;;;16.60;12.47;;;;;;;16.88;100.00;98053.16;4995094;28;20209;-81
2023/09/11 04:00:27;;;;;;;15.93;13.00;;;;;;;16.86;100.00;98049.81;4994969;28;20743;-81
2023/09/11 04:02:53;;;;;;;17.10;13.90;;;;;;;16.83;100.00;98050.09;4996428;28;20210;-81
2023/09/11 04:05:21;;;;;;;16.90;12.70;;;;;;;16.87;100.00;98043.47;4995429;28;20237;-81
2023/09/11 04:07:48;;;;;;;17.00;12.97;;;;;;;16.87;100.00;98046.16;4995051;28;20237;-81
2023/09/11 04:10:14;;;;;;;16.47;12.23;;;;;;;16.86;100.00;98038.28;4958994;28;1052640;-81
2023/09/11 04:12:41;;;;;;;16.93;13.10;;;;;;;16.83;100.00;98042.06;4996348;28;20396;-81
2023/09/11 04:15:08;;;;;;;15.07;12.63;;;;;;;16.81;100.00;98044.06;4996467;28;20210;-81
2023/09/11 04:17:34;;;;;;;17.37;13.60;;;;;;;16.78;100.00;98041.72;4996360;28;20266;-81
2023/09/11 04:20:01;;;;;;;16.17;14.03;;;;;;;16.76;100.00;98041.00;4995984;28;20214;-81
2023/09/11 04:22:29;;;;;;;17.90;13.70;;;;;;;16.76;100.00;98043.66;4995757;28;20210;-81
2023/09/11 04:24:55;;;;;;;16.20;13.00;;;;;;;16.75;100.00;98041.97;4995952;28;20221;-81
2023/09/11 04:27:22;;;;;;;17.47;13.20;;;;;;;16.74;100.00;98042.97;4995980;28;20230;-81
2023/09/11 04:29:48;;;;;;;18.90;14.07;;;;;;;16.72;100.00;98039.63;4998694;28;20214;-85
2023/09/11 04:32:17;;;;;;;17.13;13.73;;;;;;;16.72;100.00;98038.75;4997944;28;20241;-85
2023/09/11 04:34:44;;;;;;;16.43;13.30;;;;;;;16.70;100.00;98038.09;4999712;28;20689;-87
2023/09/11 04:37:11;;;;;;;17.43;12.97;;;;;;;16.66;100.00;98040.19;4999448;28;20210;-85
2023/09/11 04:39:39;;;;;;;18.57;12.80;;;;;;;16.70;100.00;98035.41;4999726;28;20684;-85
2023/09/11 04:42:06;;;;;;;17.50;12.77;;;;;;;16.69;100.00;98034.56;4998898;28;20231;-84
2023/09/11 04:44:32;;;;;;;17.70;13.37;;;;;;;16.66;100.00;98040.19;4999357;28;20220;-85
2023/09/11 04:46:59;;;;;;;18.50;13.83;;;;;;;16.72;100.00;98038.75;4999343;28;20229;-85
2023/09/11 04:49:25;;;;;;;19.03;13.63;;;;;;;16.70;100.00;98030.91;4998250;28;20392;-85
2023/09/11 04:51:53;;;;;;;16.17;12.30;;;;;;;16.70;100.00;98035.41;4998248;28;20230;-85
2023/09/11 04:54:19;;;;;;;17.23;13.10;;;;;;;16.69;100.00;98031.88;4998492;28;20217;-85
2023/09/11 04:56:47;;;;;;;14.90;11.77;;;;;;;16.69;100.00;98034.56;4998840;28;20301;-85
2023/09/11 04:59:14;;;;;;;14.77;12.57;;;;;;;16.65;100.00;98038.50;4999153;28;20213;-85
2023/09/11 05:01:40;;;;;;;14.47;12.27;;;;;;;16.65;100.00;98040.34;4999156;28;20222;-87
2023/09/11 05:04:07;;;;;;;15.70;12.27;;;;;;;16.60;100.00;98043.44;4999905;28;20214;-84
2023/09/11 05:06:34;;;;;;;14.90;12.00;;;;;;;16.57;100.00;98043.72;5000681;28;20238;-85
2023/09/11 05:09:00;;;;;;;16.67;12.77;;;;;;;16.53;100.00;98045.00;5001445;28;20226;-85
2023/09/11 05:11:27;;;;;;;16.33;12.50;;;;;;;16.51;100.00;98038.97;5001449;28;20238;-84
2023/09/11 05:13:55;;;;;;;16.50;12.73;;;;;;;16.52;100.00;98045.97;5002967;28;20206;-84
2023/09/11 05:16:21;;;;;;;17.03;12.50;;;;;;;16.55;100.00;98051.03;5003710;28;20221;-85
2023/09/11 05:18:48;;;;;;;15.70;12.50;;;;;;;16.61;100.00;98045.13;5002224;28;20213;-84
2023/09/11 05:21:15;;;;;;;17.03;13.27;;;;;;;16.62;100.00;98048.63;5003214;28;20262;-85
2023/09/11 05:23:42;;;;;;;15.17;12.50;;;;;;;16.66;100.00;98042.88;5003223;28;20301;-85
2023/09/11 05:26:09;;;;;;;14.33;12.17;;;;;;;16.68;100.00;98046.22;5002865;28;20282;-85
2023/09/11 05:28:36;;;;;;;16.60;12.70;;;;;;;16.73;100.00;98045.78;5002725;28;20236;-85
2023/09/11 05:31:05;;;;;;;16.93;12.93;;;;;;;16.80;100.00;98047.72;5002097;28;20236;-85
2023/09/11 05:33:31;;;;;;;16.80;12.80;;;;;;;16.85;100.00;98052.63;5001423;28;20241;-84
2023/09/11 05:35:58;;;;;;;17.73;12.83;;;;;;;16.88;100.00;98055.84;5001826;28;20210;-84
2023/09/11 05:38:24;;;;;;;17.57;13.37;;;;;;;16.91;100.00;98054.69;5000838;28;20210;-86
2023/09/11 05:40:51;;;;;;;15.50;13.03;;;;;;;16.94;100.00;98054.44;4998617;28;20736;-86
2023/09/11 05:43:17;;;;;;;16.07;12.50;;;;;;;16.99;100.00;98058.31;4999593;28;20221;-84
2023/09/11 05:45:44;;;;;;;17.77;13.37;;;;;;;17.05;100.00;98063.06;4999836;28;20210;-86
2023/09/11 05:48:13;;;;;;;18.13;14.13;;;;;;;17.12;100.00;98058.81;5000266;28;20234;-87
2023/09/11 05:50:39;;;;;;;19.67;14.20;;;;;;;17.17;100.00;98059.22;5000385;28;20265;-87
2023/09/11 05:53:07;;;;;;;17.43;13.77;;;;;;;17.21;100.00;98065.97;5000455;28;20218;-85
2023/09/11 05:55:33;;;;;;;20.40;15.07;;;;;;;17.24;100.00;98068.31;5000910;28;20214;-85
2023/09/11 05:58:00;;;;;;;18.27;13.97;;;;;;;17.30;100.00;98065.03;5000252;28;20229;-86
2023/09/11 06:00:27;;;;;;;16.63;13.63;;;;;;;17.35;100.00;98068.13;4999890;28;20226;-85
2023/09/11 06:02:54;;;;;;;18.20;13.63;;;;;;;17.44;100.00;98069.91;5000136;28;20218;-85
2023/09/11 06:05:22;;;;;;;18.63;13.40;;;;;;;17.50;100.00;98063.97;4999454;28;20210;-85
2023/09/11 06:07:49;;;;;;;17.67;13.87;;;;;;;17.58;100.00;98066.75;4999490;28;20242;-86
2023/09/11 06:10:15;;;;;;;17.40;13.70;;;;;;;17.66;100.00;98068.63;4998108;28;20338;-86
2023/09/11 06:12:42;;;;;;;16.10;13.30;;;;;;;17.73;100.00;98070.56;4999915;28;20272;-86
2023/09/11 06:15:09;;;;;;;16.93;13.63;;;;;;;17.83;100.00;98060.66;4999477;28;20704;-86
2023/09/11 06:17:36;;;;;;;18.50;13.20;;;;;;;17.97;100.00;98062.78;4999951;28;20622;-86
2023/09/11 06:20:06;;;;;;;18.17;13.50;;;;;;;18.08;100.00;98070.56;4998566;28;20229;-85
2023/09/11 06:22:34;;;;;;;17.50;13.37;;;;;;;18.17;100.00;98068.81;5000114;28;20198;-86
2023/09/11 06:25:00;;;;;;;16.53;12.67;;;;;;;18.26;100.00;98079.44;4999835;28;20228;-86
2023/09/11 06:27:27;;;;;;;18.03;13.20;;;;;;;18.34;100.00;98079.50;4999965;28;20213;-86
2023/09/11 06:29:54;;;;;;;18.10;13.70;;;;;;;18.46;100.00;98080.13;4999690;28;20213;-86
2023/09/11 06:32:21;;;;;;;16.07;13.10;;;;;;;18.60;100.00;98083.03;5000500;28;20202;-85
2023/09/11 06:34:48;;;;;;;16.13;12.63;;;;;;;18.73;100.00;98077.28;4999780;28;20210;-85
2023/09/11 06:37:14;;;;;;;17.53;12.83;;;;;;;18.79;100.00;98082.88;4999259;28;20214;-87
2023/09/11 06:39:42;;;;;;;17.20;12.93;;;;;;;18.92;100.00;98079.75;4999245;28;20206;-84
2023/09/11 06:42:08;;;;;;;13.80;11.70;;;;;;;19.00;100.00;98085.13;4998198;28;20237;-84
2023/09/11 06:44:35;;;;;;;15.10;12.53;;;;;;;19.14;100.00;98081.88;4999599;28;20671;-87
2023/09/11 06:47:01;;;;;;;14.53;12.57;;;;;;;19.21;100.00;98086.44;4999675;28;20210;-87
2023/09/11 06:49:28;;;;;;;13.87;11.37;;;;;;;19.32;100.00;98079.97;4999529;28;20232;-85
2023/09/11 06:51:56;;;;;;;16.77;12.40;;;;;;;19.43;100.00;98077.84;4998310;28;20321;-85
2023/09/11 06:54:23;;;;;;;15.20;11.93;;;;;;;19.50;100.00;98083.41;4998137;28;20257;-85
2023/09/11 06:56:50;;;;;;;13.30;11.10;;;;;;;19.60;100.00;98082.25;4999581;28;20280;-85
2023/09/11 06:59:17;;;;;;;14.13;11.40;;;;;;;19.69;100.00;98075.91;5000422;28;20212;-85
2023/09/11 07:01:43;;;;;;;15.10;11.57;;;;;;;19.79;100.00;98073.91;5000499;28;20230;-85
2023/09/11 07:04:11;;;;;;;16.07;13.37;;;;;;;19.91;100.00;98077.97;4999621;28;20217;-85
2023/09/11 07:06:37;;;;;;;15.67;11.90;;;;;;;20.01;100.00;98078.66;4998588;28;20651;-85
2023/09/11 07:09:05;;;;;;;15.30;11.60;;;;;;;20.15;100.00;98075.34;4997004;28;20225;-78
2023/09/11 07:11:31;;;;;;;14.60;11.27;;;;;;;20.21;100.00;98080.03;5000493;28;20743;-84
2023/09/11 07:13:59;;;;;;;14.40;11.50;;;;;;;20.34;100.00;98074.16;5001639;28;20206;-85
2023/09/11 07:16:25;;;;;;;15.10;11.90;;;;;;;20.47;100.00;98069.16;5000811;28;20210;-84
2023/09/11 07:18:52;;;;;;;15.13;11.43;;;;;;;20.52;100.00;98073.00;4999919;28;20210;-85
2023/09/11 07:21:19;;;;;;;15.13;11.37;;;;;;;20.60;100.00;98075.66;4999956;28;20434;-84
2023/09/11 07:23:45;;;;;;;15.27;11.43;;;;;;;20.74;100.00;98069.63;5001047;28;20210;-83
2023/09/11 07:26:12;;;;;;;13.00;10.37;;;;;;;20.85;100.00;98068.41;4998771;28;20226;-85
2023/09/11 07:28:53;;;;;;;14.83;11.73;;;;;;;20.94;100.00;98065.56;4997556;28;20237;-85
2023/09/11 07:31:21;;;;;;;14.67;11.23;;;;;;;21.04;100.00;98068.88;4996271;28;20680;-85
2023/09/11 07:33:47;;;;;;;14.87;10.87;;;;;;;21.16;100.00;98075.56;4996621;28;20218;-85
2023/09/11 07:36:14;;;;;;;15.00;11.30;;;;;;;21.31;100.00;98065.78;4996259;28;20661;-85
2023/09/11 07:38:44;;;;;;;14.20;10.70;;;;;;;21.38;100.00;98066.75;4996860;28;20207;-85
2023/09/11 07:41:11;;;;;;;11.93;10.70;;;;;;;21.54;100.00;98061.31;4996846;28;20241;-84
2023/09/11 07:43:37;;;;;;;13.60;10.53;;;;;;;21.64;100.00;98059.22;4996362;28;20206;-85
2023/09/11 07:46:04;;;;;;;13.47;10.40;;;;;;;21.78;100.00;98063.91;4993008;28;20221;-86
2023/09/11 07:48:32;;;;;;;11.43;9.67;;;;;;;21.91;100.00;98058.75;4992858;28;20779;-86
2023/09/11 07:50:58;;;;;;;15.50;11.03;;;;;;;22.03;97.43;98051.09;4991086;28;20237;-85
2023/09/11 07:53:25;;;;;;;14.00;10.77;;;;;;;22.09;96.22;98056.63;4992885;28;20672;-85
2023/09/11 07:55:51;;;;;;;12.93;9.97;;;;;;;22.14;95.72;98054.19;4994087;28;20214;-86
2023/09/11 07:58:18;;;;;;;13.37;9.97;;;;;;;22.18;94.73;98049.31;4996156;28;20310;-85
2023/09/11 08:00:44;;;;;;;12.20;9.87;;;;;;;22.26;94.25;98047.38;4994888;28;20229;-86
2023/09/11 08:03:11;;;;;;;11.43;9.07;;;;;;;22.33;94.66;98053.72;4992650;28;20217;-86
2023/09/11 08:05:39;;;;;;;11.67;9.77;;;;;;;22.44;93.65;98053.31;4994764;28;20696;-85
2023/09/11 08:08:06;;;;;;;14.47;10.20;;;;;;;22.47;90.88;98042.19;4997606;28;20221;-84
2023/09/11 08:10:32;;;;;;;12.67;9.40;;;;;;;22.55;87.89;98041.28;4996567;28;20249;-85
2023/09/11 08:12:59;;;;;;;12.87;9.87;;;;;;;22.65;87.13;98036.44;4998384;28;20191;-84
2023/09/11 08:15:28;;;;;;;11.77;9.50;;;;;;;22.78;85.50;98037.50;4995933;28;20665;-86
2023/09/11 08:17:54;;;;;;;9.63;8.63;;;;;;;22.83;86.58;98045.88;4996110;28;20210;-84
2023/09/11 08:20:21;;;;;;;12.00;9.30;;;;;;;22.91;86.40;98048.47;5000145;28;20229;-84
2023/09/11 08:22:48;;;;;;;10.48;9.18;;;;;;;23.00;85.34;98047.38;4996212;28;20439;-84
2023/09/11 08:25:15;;;;;;;11.00;8.67;;;;;;;23.08;84.77;98044.59;4997892;28;20248;-83
2023/09/11 08:27:41;;;;;;;11.17;9.73;;;;;;;23.18;84.15;98038.94;4997248;28;20213;-82
2023/09/11 08:30:08;;;;;;;12.57;9.60;;;;;;;23.28;83.55;98039.50;4995826;28;20235;-82
2023/09/11 08:32:35;;;;;;;10.87;8.77;;;;;;;23.41;83.76;98053.97;4995418;28;20225;-82
2023/09/11 08:35:02;;;;;;;9.83;8.73;;;;;;;23.50;83.14;98050.16;4995872;28;20220;-79
2023/09/11 08:37:30;;;;;;;10.13;9.07;;;;;;;23.68;81.80;98047.91;4995256;28;20268;-83
2023/09/11 08:39:58;;;;;;;10.50;8.60;;;;;;;23.89;79.78;98050.66;4993051;28;20719;-77
2023/09/11 08:42:24;;;;;;;12.40;8.83;;;;;;;23.94;78.95;98048.22;4992674;28;20217;-84
2023/09/11 08:44:51;;;;;;;10.47;8.47;;;;;;;23.95;78.74;98044.47;4995438;28;20205;-84
2023/09/11 08:47:20;;;;;;;11.20;9.10;;;;;;;23.93;75.61;98027.66;4996626;28;20214;-82
2023/09/11 08:49:52;;;;;;;13.00;8.40;;;;;;;23.93;75.55;98030.34;4995104;28;20234;-82
2023/09/11 08:52:19;;;;;;;9.33;8.23;;;;;;;24.08;76.86;98041.91;4995588;28;20236;-83
2023/09/11 08:54:50;;;;;;;11.53;8.70;;;;;;;24.20;76.33;98037.69;4996000;28;20225;-83
2023/09/11 08:57:22;;;;;;;9.17;7.80;;;;;;;24.25;75.76;98035.22;4996248;28;20245;-82
2023/09/11 08:59:52;;;;;;;9.63;8.00;;;;;;;24.38;76.68;98042.63;4996468;28;20205;-82
2023/09/11 09:02:21;;;;;;;10.27;7.87;;;;;;;24.52;76.56;98045.25;4995596;28;20210;-82
2023/09/11 09:04:50;;;;;;;9.63;8.10;;;;;;;24.60;75.17;98034.34;4995955;28;20630;-82
2023/09/11 09:07:18;;;;;;;10.47;8.10;;;;;;;24.68;74.74;98031.47;4996728;28;20210;-83
2023/09/11 09:09:48;;;;;;;9.10;8.20;;;;;;;24.84;72.30;98025.78;4996246;28;20234;-83
2023/09/11 09:12:14;;;;;;;8.77;7.87;;;;;;;24.93;70.19;98011.06;4995424;28;20237;-83
2023/09/11 09:14:42;;;;;;;10.97;8.90;;;;;;;25.01;70.43;98012.78;4996247;28;20220;-82
2023/09/11 09:17:09;;;;;;;11.47;8.53;;;;;;;25.12;69.16;98002.22;4994106;28;20206;-80
2023/09/11 09:19:35;;;;;;;9.77;8.43;;;;;;;25.17;70.33;98009.75;5006952;28;20198;-81
2023/09/11 09:22:10;;;;;;;11.67;8.70;;;;;;;25.18;69.76;98001.41;5005709;28;20685;-82
2023/09/11 09:24:46;;;;;;;10.57;8.73;;;;;;;25.26;69.96;98006.72;5007126;28;20206;-81
2023/09/11 09:27:13;;;;;;;10.40;9.03;;;;;;;25.47;68.94;98000.34;5007403;28;20213;-81
2023/09/11 09:29:40;;;;;;;13.47;8.57;;;;;;;25.64;66.52;97985.41;5007238;28;20237;-82
2023/09/11 09:32:09;;;;;;;10.73;8.90;;;;;;;25.62;66.49;97982.91;5007966;28;20229;-82
2023/09/11 09:34:37;;;;;;;9.77;8.10;;;;;;;25.78;66.20;97981.72;5008464;28;20222;-84
2023/09/11 09:37:04;;;;;;;12.95;9.18;;;;;;;25.86;65.79;97985.06;5005779;28;20485;-82
2023/09/11 09:39:33;;;;;;;9.43;8.43;;;;;;;25.90;65.59;97980.91;5008338;28;20210;-81
2023/09/11 09:42:02;;;;;;;10.90;8.60;;;;;;;26.05;64.95;97978.88;5006043;28;20230;-83
2023/09/11 09:44:29;;;;;;;11.40;7.83;;;;;;;26.07;64.33;97976.78;5006989;28;20214;-83
2023/09/11 09:46:55;;;;;;;9.00;8.03;;;;;;;26.21;62.68;97973.03;5008170;28;20206;-83
2023/09/11 09:49:23;;;;;;;9.70;7.90;;;;;;;26.30;61.00;97966.38;4998546;28;20237;-83
2023/09/11 09:51:52;;;;;;;9.27;8.07;;;;;;;26.30;60.81;97966.38;4972067;28;20570;-83
2023/09/11 09:54:18;;;;;;;9.90;7.90;;;;;;;26.30;60.67;97963.69;4982585;28;20219;-83
2023/09/11 09:56:47;;;;;;;9.63;7.70;;;;;;;26.24;59.88;97955.53;4992685;28;20206;-83
2023/09/11 09:59:25;;;;;;;8.77;7.87;;;;;;;26.20;60.54;97962.44;4998093;28;20187;-83
2023/09/11 10:01:52;;;;;;;9.63;7.13;;;;;;;26.22;60.90;97958.44;4987576;28;20231;-83
2023/09/11 10:04:20;;;;;;;8.60;7.57;;;;;;;26.46;61.28;97965.13;4993353;28;20289;-83
2023/09/11 10:06:54;;;;;;;9.30;7.87;;;;;;;26.55;61.15;97961.19;4984365;28;20207;-83
2023/09/11 10:09:21;;;;;;;9.10;7.43;;;;;;;26.69;59.86;97944.69;4990528;28;20238;-83
2023/09/11 10:11:51;;;;;;;10.25;7.90;;;;;;;26.89;58.53;97940.03;4988041;28;20262;-83
2023/09/11 10:14:19;;;;;;;9.93;7.53;;;;;;;26.84;57.69;97934.44;4987113;28;20213;-82
2023/09/11 10:16:46;;;;;;;8.20;7.15;;;;;;;26.86;58.36;97945.06;4988946;28;20211;-78
2023/09/11 10:19:13;;;;;;;8.15;7.35;;;;;;;27.00;58.91;97938.56;4979843;28;20207;-82
2023/09/11 10:21:40;;;;;;;8.65;7.00;;;;;;;27.06;56.93;97919.53;4984901;28;20231;-81
2023/09/11 10:24:10;;;;;;;9.20;6.50;;;;;;;27.12;55.72;97917.88;4984300;28;20219;-81
2023/09/11 10:26:44;;;;;;;11.00;7.70;;;;;;;27.01;56.00;97923.97;4985916;28;20210;-81
2023/09/11 10:29:12;;;;;;;9.03;7.10;;;;;;;26.99;56.03;97913.31;4986812;28;20241;-82
2023/09/11 10:31:46;;;;;;;9.17;7.23;;;;;;;27.15;57.44;97923.69;4988301;28;20231;-83
2023/09/11 10:34:13;;;;;;;10.90;7.32;;;;;;;27.59;55.45;97921.00;4987218;28;20245;-82
2023/09/11 10:36:46;;;;;;;9.02;7.00;;;;;;;27.63;54.19;97906.75;4985361;28;20230;-82
2023/09/11 10:39:16;;;;;;;8.57;6.80;;;;;;;27.59;54.42;97912.84;4983074;28;20217;-81
2023/09/11 10:41:43;;;;;;;9.30;6.72;;;;;;;27.77;53.63;97912.97;4984313;28;20237;-81
2023/09/11 10:44:10;;;;;;;8.18;6.72;;;;;;;27.84;53.41;97908.34;4986231;28;20217;-82
2023/09/11 10:46:39;;;;;;;8.68;7.28;;;;;;;27.86;53.06;97906.22;4986723;28;20211;-82
2023/09/11 10:49:23;;;;;;;7.68;6.90;;;;;;;27.83;54.32;97906.66;4986262;28;20629;-81
2023/09/11 10:51:51;;;;;;;8.70;6.63;;;;;;;27.92;53.89;97900.75;4987288;28;20238;-82
2023/09/11 10:54:22;;;;;;;10.52;7.05;;;;;;;28.08;53.35;97896.66;4985603;28;20212;-80
2023/09/11 10:56:49;;;;;;;8.38;6.57;;;;;;;28.20;51.12;97897.59;4981651;28;20219;-81
2023/09/11 10:59:16;;;;;;;8.15;6.65;;;;;;;28.16;51.98;97907.22;4981339;28;20215;-81
2023/09/11 11:01:45;;;;;;;8.98;7.25;;;;;;;28.21;52.06;97915.56;4981062;28;20245;-81
2023/09/11 11:04:14;;;;;;;7.53;6.22;;;;;;;28.23;51.88;97908.84;4981863;28;20211;-81
2023/09/11 11:06:44;;;;;;;9.30;6.63;;;;;;;28.23;53.69;97921.59;4980784;28;20207;-81
2023/09/11 11:09:25;;;;;;;7.80;6.32;;;;;;;28.25;52.29;97906.72;4981381;28;20245;-81
2023/09/11 11:11:52;;;;;;;7.43;6.72;;;;;;;28.35;51.85;97900.78;4981327;28;20234;-81
2023/09/11 11:14:21;;;;;;;9.98;6.70;;;;;;;28.47;51.13;97893.59;4981110;28;20221;-81
2023/09/11 11:16:57;;;;;;;7.53;6.70;;;;;;;28.55;49.66;97888.72;4980828;28;20258;-81
2023/09/11 11:19:28;;;;;;;7.97;6.47;;;;;;;28.39;49.45;97885.75;4979233;28;20213;-81